createdAt,value
2024-01-29T00:00:20.858Z,-5.06
2024-01-29T00:02:48.172Z,-5.18
2024-01-29T00:05:15.307Z,-5.65
2024-01-29T00:07:42.788Z,-5.20
2024-01-29T00:10:11.425Z,-5.18
2024-01-29T00:12:38.657Z,-5.48
2024-01-29T00:15:06.523Z,-5.13
2024-01-29T00:17:33.583Z,-5.21
2024-01-29T00:20:00.835Z,-5.15
2024-01-29T00:22:27.954Z,-5.16
2024-01-29T00:24:55.072Z,-5.38
2024-01-29T00:27:22.374Z,-5.33
2024-01-29T00:29:49.503Z,-5.22
2024-01-29T00:32:16.570Z,-5.24
2024-01-29T00:34:44.076Z,-5.16
2024-01-29T00:37:11.239Z,-5.41
2024-01-29T00:39:38.576Z,-5.28
2024-01-29T00:42:06.421Z,-4.98
2024-01-29T00:44:33.609Z,-4.95
2024-01-29T00:47:01.465Z,-4.96
2024-01-29T00:49:32.736Z,-5.17
2024-01-29T00:52:00.369Z,-5.06
2024-01-29T00:54:27.526Z,-5.04
2024-01-29T00:56:54.713Z,-5.14
2024-01-29T00:59:21.837Z,-5.13
2024-01-29T01:01:49.158Z,-5.08
2024-01-29T01:04:17.248Z,-5.20
2024-01-29T01:06:44.502Z,-5.27
2024-01-29T01:09:11.958Z,-5.67
2024-01-29T01:11:38.984Z,-5.20
2024-01-29T01:14:06.058Z,-5.25
2024-01-29T01:16:33.250Z,-5.63
2024-01-29T01:19:00.487Z,-5.24
2024-01-29T01:21:27.645Z,-5.48
2024-01-29T01:23:54.732Z,-5.17
2024-01-29T01:26:21.866Z,-5.33
2024-01-29T01:28:48.911Z,-5.15
2024-01-29T01:31:16.836Z,-5.97
2024-01-29T01:33:44.024Z,-5.40
2024-01-29T01:36:11.851Z,-5.40
2024-01-29T01:38:38.914Z,-5.52
2024-01-29T01:41:06.493Z,-5.70
2024-01-29T01:43:36.192Z,-5.55
2024-01-29T01:46:06.241Z,-5.58
2024-01-29T01:48:34.853Z,-5.60
2024-01-29T01:51:04.260Z,-5.61
2024-01-29T01:53:33.593Z,-5.76
2024-01-29T01:56:01.610Z,-5.66
2024-01-29T01:58:28.662Z,-5.73
2024-01-29T02:00:59.504Z,-5.77
2024-01-29T02:03:27.654Z,-5.84
2024-01-29T02:05:55.028Z,-5.87
2024-01-29T02:08:22.322Z,-5.83
2024-01-29T02:10:51.220Z,-5.86
2024-01-29T02:13:18.245Z,-5.82
2024-01-29T02:15:45.461Z,-6.08
2024-01-29T02:18:12.587Z,-5.81
2024-01-29T02:20:39.721Z,-5.77
2024-01-29T02:23:06.809Z,-5.87
2024-01-29T02:25:34.832Z,-5.69
2024-01-29T02:28:02.743Z,-6.07
2024-01-29T02:30:30.048Z,-5.61
2024-01-29T02:32:57.183Z,-5.56
2024-01-29T02:35:24.547Z,-5.52
2024-01-29T02:37:51.666Z,-5.60
2024-01-29T02:40:18.805Z,-5.59
2024-01-29T02:42:45.974Z,-5.50
2024-01-29T02:45:13.061Z,-5.50
2024-01-29T02:47:40.285Z,-5.40
2024-01-29T02:50:07.853Z,-5.41
2024-01-29T02:52:34.989Z,-5.35
2024-01-29T02:55:02.940Z,-5.44
2024-01-29T02:57:30.473Z,-5.32
2024-01-29T02:59:57.569Z,-5.35
2024-01-29T03:02:24.659Z,-5.43
2024-01-29T03:04:53.236Z,-5.42
2024-01-29T03:07:20.502Z,-5.46
2024-01-29T03:09:47.626Z,-5.53
2024-01-29T03:12:14.737Z,-5.47
2024-01-29T03:14:42.748Z,-5.59
2024-01-29T03:17:09.877Z,-5.63
2024-01-29T03:19:36.989Z,-5.80
2024-01-29T03:22:04.273Z,-5.77
2024-01-29T03:24:31.390Z,-5.73
2024-01-29T03:26:58.662Z,-5.79
2024-01-29T03:29:25.800Z,-5.75
2024-01-29T03:31:52.850Z,-5.90
2024-01-29T03:34:20.088Z,-6.18
2024-01-29T03:36:47.508Z,-6.38
2024-01-29T03:39:14.670Z,-6.18
2024-01-29T03:41:41.877Z,-6.53
2024-01-29T03:44:09.587Z,-6.40
2024-01-29T03:46:36.715Z,-6.61
2024-01-29T03:49:03.920Z,-6.92
2024-01-29T03:51:31.112Z,-7.04
2024-01-29T03:53:58.212Z,-7.11
2024-01-29T03:56:25.265Z,-7.77
2024-01-29T03:58:52.721Z,-7.26
2024-01-29T04:01:29.797Z,-7.34
2024-01-29T04:03:57.320Z,-7.95
2024-01-29T04:06:24.993Z,-7.38
2024-01-29T04:08:52.181Z,-7.17
2024-01-29T04:11:19.648Z,-7.21
2024-01-29T04:13:46.681Z,-7.17
2024-01-29T04:16:13.873Z,-7.42
2024-01-29T04:18:41.510Z,-7.40
2024-01-29T04:21:08.827Z,-7.49
2024-01-29T04:23:36.557Z,-7.54
2024-01-29T04:26:04.097Z,-7.62
2024-01-29T04:28:31.141Z,-7.71
2024-01-29T04:30:59.892Z,-8.06
2024-01-29T04:33:29.066Z,-7.79
2024-01-29T04:35:56.114Z,-7.93
2024-01-29T04:38:23.503Z,-7.77
2024-01-29T04:40:50.572Z,-7.99
2024-01-29T04:43:17.668Z,-7.88
2024-01-29T04:45:45.605Z,-7.71
2024-01-29T04:48:12.749Z,-7.71
2024-01-29T04:50:39.792Z,-7.74
2024-01-29T04:53:06.835Z,-7.91
2024-01-29T04:55:33.885Z,-8.11
2024-01-29T04:58:01.007Z,-7.68
2024-01-29T05:00:28.121Z,-7.67
2024-01-29T05:02:55.327Z,-7.70
2024-01-29T05:05:22.395Z,-7.81
2024-01-29T05:07:49.478Z,-7.90
2024-01-29T05:10:16.778Z,-8.01
2024-01-29T05:12:43.889Z,-7.90
2024-01-29T05:15:12.782Z,-7.89
2024-01-29T05:17:40.012Z,-7.83
2024-01-29T05:20:08.881Z,-7.83
2024-01-29T05:22:36.016Z,-7.82
2024-01-29T05:25:03.478Z,-7.87
2024-01-29T05:27:30.845Z,-7.93
2024-01-29T05:29:57.996Z,-7.93
2024-01-29T05:32:25.221Z,-7.91
2024-01-29T05:34:52.517Z,-7.97
2024-01-29T05:37:19.680Z,-7.88
2024-01-29T05:39:47.149Z,-7.81
2024-01-29T05:42:14.310Z,-7.92
2024-01-29T05:44:41.375Z,-7.94
2024-01-29T05:47:08.542Z,-7.93
2024-01-29T05:49:35.704Z,-7.88
2024-01-29T05:52:03.133Z,-8.20
2024-01-29T05:54:31.025Z,-8.12
2024-01-29T05:56:58.346Z,-8.18
2024-01-29T05:59:25.513Z,-8.04
2024-01-29T06:01:52.723Z,-8.20
2024-01-29T06:04:20.034Z,-8.16
2024-01-29T06:06:47.361Z,-8.19
2024-01-29T06:09:15.788Z,-8.19
2024-01-29T06:11:48.342Z,-8.13
2024-01-29T06:14:15.464Z,-7.96
2024-01-29T06:16:44.689Z,-8.04
2024-01-29T06:19:16.719Z,-8.11
2024-01-29T06:21:44.815Z,-8.55
2024-01-29T06:24:12.136Z,-8.21
2024-01-29T06:26:39.288Z,-8.25
2024-01-29T06:29:06.344Z,-8.24
2024-01-29T06:31:33.861Z,-8.03
2024-01-29T06:34:03.939Z,-8.11
2024-01-29T06:36:32.034Z,-8.21
2024-01-29T06:38:59.435Z,-9.05
2024-01-29T06:41:27.928Z,-8.27
2024-01-29T06:43:55.677Z,-8.37
2024-01-29T06:46:23.698Z,-8.38
2024-01-29T06:48:51.044Z,-8.27
2024-01-29T06:51:18.189Z,-8.36
2024-01-29T06:53:45.360Z,-8.56
2024-01-29T06:56:12.484Z,-8.45
2024-01-29T06:58:39.928Z,-8.53
2024-01-29T07:01:07.527Z,-8.57
2024-01-29T07:03:34.840Z,-8.61
2024-01-29T07:06:02.047Z,-8.93
2024-01-29T07:08:29.180Z,-8.24
2024-01-29T07:10:56.870Z,-8.15
2024-01-29T07:13:24.881Z,-8.23
2024-01-29T07:15:51.982Z,-8.33
2024-01-29T07:18:19.339Z,-8.32
2024-01-29T07:20:47.400Z,-8.40
2024-01-29T07:23:14.548Z,-8.33
2024-01-29T07:25:42.379Z,-8.13
2024-01-29T07:28:09.916Z,-7.94
2024-01-29T07:30:37.457Z,-8.03
2024-01-29T07:33:05.311Z,-8.42
2024-01-29T07:35:33.685Z,-8.75
2024-01-29T07:38:00.763Z,-8.34
2024-01-29T07:40:27.923Z,-8.42
2024-01-29T07:42:55.125Z,-8.30
2024-01-29T07:45:22.256Z,-8.25
2024-01-29T07:47:49.647Z,-8.30
2024-01-29T07:50:16.883Z,-8.34
2024-01-29T07:52:44.439Z,-8.24
2024-01-29T07:55:11.651Z,-8.23
2024-01-29T07:57:39.025Z,-8.26
2024-01-29T08:00:07.394Z,-8.13
2024-01-29T08:02:35.150Z,-8.11
2024-01-29T08:05:02.596Z,-8.17
2024-01-29T08:07:29.974Z,-8.09
2024-01-29T08:09:59.186Z,-7.80
2024-01-29T08:12:26.308Z,-7.80
2024-01-29T08:14:53.580Z,-7.83
2024-01-29T08:17:21.263Z,-7.77
2024-01-29T08:19:48.526Z,-7.62
2024-01-29T08:22:15.735Z,-7.51
2024-01-29T08:24:42.833Z,-7.41
2024-01-29T08:27:09.881Z,-7.40
2024-01-29T08:29:37.327Z,-7.23
2024-01-29T08:32:05.398Z,-6.97
2024-01-29T08:34:32.749Z,-6.86
2024-01-29T08:37:00.285Z,-6.45
2024-01-29T08:39:27.590Z,-6.43
2024-01-29T08:41:54.722Z,-6.38
2024-01-29T08:44:22.031Z,-6.35
2024-01-29T08:46:49.143Z,-6.65
2024-01-29T08:49:17.773Z,-6.29
2024-01-29T08:51:46.305Z,-6.11
2024-01-29T08:54:13.647Z,-6.14
2024-01-29T08:56:41.229Z,-6.15
2024-01-29T08:59:09.139Z,-5.83
2024-01-29T09:01:36.405Z,-6.13
2024-01-29T09:04:04.097Z,-6.13
2024-01-29T09:06:31.386Z,-5.84
2024-01-29T09:08:58.447Z,-5.83
2024-01-29T09:11:26.828Z,-5.89
2024-01-29T09:13:53.914Z,-5.44
2024-01-29T09:16:21.722Z,-5.45
2024-01-29T09:18:48.809Z,-5.65
2024-01-29T09:21:16.048Z,-5.07
2024-01-29T09:23:43.188Z,-5.60
2024-01-29T09:26:10.281Z,-5.30
2024-01-29T09:28:39.008Z,-4.98
2024-01-29T09:31:06.873Z,-4.49
2024-01-29T09:33:34.089Z,-4.37
2024-01-29T09:36:01.772Z,-4.24
2024-01-29T09:38:28.941Z,-3.92
2024-01-29T09:40:58.477Z,-4.13
2024-01-29T09:43:27.189Z,-3.57
2024-01-29T09:45:54.916Z,-3.40
2024-01-29T09:48:23.232Z,-3.25
2024-01-29T09:50:52.466Z,-3.24
2024-01-29T09:53:21.992Z,-3.07
2024-01-29T09:55:49.411Z,-3.32
2024-01-29T09:58:16.504Z,-2.87
2024-01-29T10:00:43.997Z,-2.67
2024-01-29T10:03:26.335Z,-2.65
2024-01-29T10:05:53.861Z,-2.43
2024-01-29T10:08:25.105Z,-2.60
2024-01-29T10:10:53.824Z,-2.52
2024-01-29T10:13:21.894Z,-2.04
2024-01-29T10:15:51.078Z,-2.09
2024-01-29T10:18:18.849Z,-1.88
2024-01-29T10:20:46.900Z,-1.71
2024-01-29T10:23:14.038Z,-1.94
2024-01-29T10:25:41.287Z,-1.46
2024-01-29T10:28:13.822Z,-1.60
2024-01-29T10:30:42.039Z,-1.18
2024-01-29T10:33:10.108Z,-1.70
2024-01-29T10:35:38.145Z,-1.06
2024-01-29T10:38:06.646Z,-0.96
2024-01-29T10:40:34.891Z,-0.85
2024-01-29T10:43:03.157Z,-0.98
2024-01-29T10:45:34.343Z,-0.72
2024-01-29T10:48:23.707Z,-0.61
2024-01-29T10:50:51.957Z,-0.57
2024-01-29T10:53:21.492Z,-0.40
2024-01-29T10:55:52.133Z,-0.30
2024-01-29T10:58:21.976Z,-0.33
2024-01-29T11:00:51.351Z,-0.34
2024-01-29T11:03:21.188Z,-0.68
2024-01-29T11:05:56.781Z,-0.33
2024-01-29T11:08:27.662Z,-0.27
2024-01-29T11:10:55.376Z,-0.72
2024-01-29T11:13:23.886Z,-0.22
2024-01-29T11:15:52.532Z,-0.16
2024-01-29T11:18:19.801Z,-0.13
2024-01-29T11:20:53.144Z,-0.16
2024-01-29T11:23:28.432Z,0.17
2024-01-29T11:26:05.086Z,0.19
2024-01-29T11:28:33.469Z,0.46
2024-01-29T11:31:09.993Z,0.32
2024-01-29T11:33:37.914Z,0.60
2024-01-29T11:36:13.420Z,0.48
2024-01-29T11:38:41.178Z,0.69
2024-01-29T11:41:08.711Z,0.37
2024-01-29T11:43:36.552Z,0.30
2024-01-29T11:46:06.271Z,0.52
2024-01-29T11:48:33.541Z,0.86
2024-01-29T11:51:01.151Z,0.70
2024-01-29T11:53:28.431Z,0.93
2024-01-29T11:55:56.174Z,0.98
2024-01-29T11:58:24.560Z,1.00
2024-01-29T12:00:53.479Z,1.01
2024-01-29T12:03:28.436Z,0.95
2024-01-29T12:05:55.933Z,0.25
2024-01-29T12:08:28.460Z,0.91
2024-01-29T12:11:04.022Z,0.92
2024-01-29T12:13:32.185Z,1.26
2024-01-29T12:16:01.641Z,1.32
2024-01-29T12:18:30.622Z,1.45
2024-01-29T12:20:58.211Z,1.49
2024-01-29T12:23:25.962Z,1.51
2024-01-29T12:25:57.261Z,1.58
2024-01-29T12:28:28.817Z,1.46
2024-01-29T12:31:05.902Z,1.66
2024-01-29T12:33:34.990Z,1.71
2024-01-29T12:36:17.294Z,1.75
2024-01-29T12:38:56.340Z,1.81
2024-01-29T12:41:25.609Z,1.53
2024-01-29T12:43:53.171Z,1.89
2024-01-29T12:46:21.177Z,1.77
2024-01-29T12:48:48.771Z,1.82
2024-01-29T12:51:16.653Z,1.90
2024-01-29T12:53:56.622Z,1.94
2024-01-29T12:56:30.916Z,1.94
2024-01-29T12:58:58.347Z,1.76
2024-01-29T13:01:26.094Z,1.74
2024-01-29T13:03:53.274Z,1.85
2024-01-29T13:06:20.728Z,1.94
2024-01-29T13:08:47.859Z,1.94
2024-01-29T13:11:15.077Z,1.95
2024-01-29T13:13:42.181Z,1.91
2024-01-29T13:16:09.396Z,1.89
2024-01-29T13:18:36.628Z,1.89
2024-01-29T13:21:10.354Z,1.90
2024-01-29T13:23:38.707Z,1.94
2024-01-29T13:26:08.062Z,1.96
2024-01-29T13:28:35.352Z,2.05
2024-01-29T13:31:04.170Z,2.19
2024-01-29T13:33:32.106Z,2.24
2024-01-29T13:36:01.114Z,2.39
2024-01-29T13:38:28.220Z,2.07
2024-01-29T13:40:55.919Z,2.35
2024-01-29T13:43:23.062Z,2.28
2024-01-29T13:45:50.278Z,2.19
2024-01-29T13:48:17.585Z,1.87
2024-01-29T13:50:46.171Z,2.43
2024-01-29T13:53:13.312Z,2.51
2024-01-29T13:55:40.533Z,2.53
2024-01-29T13:58:07.752Z,2.68
2024-01-29T14:00:35.084Z,2.53
2024-01-29T14:03:02.462Z,2.57
2024-01-29T14:05:31.283Z,2.59
2024-01-29T14:07:58.538Z,2.57
2024-01-29T14:10:25.637Z,2.54
2024-01-29T14:12:52.874Z,2.48
2024-01-29T14:15:19.993Z,2.35
2024-01-29T14:17:47.745Z,2.28
2024-01-29T14:20:15.048Z,2.22
2024-01-29T14:22:42.230Z,2.13
2024-01-29T14:25:09.517Z,2.15
2024-01-29T14:27:36.640Z,2.09
2024-01-29T14:30:06.042Z,1.99
2024-01-29T14:32:33.340Z,1.89
2024-01-29T14:35:00.820Z,1.88
2024-01-29T14:37:28.068Z,1.80
2024-01-29T14:39:55.256Z,1.69
2024-01-29T14:42:22.687Z,1.61
2024-01-29T14:44:49.751Z,1.47
2024-01-29T14:47:17.930Z,1.40
2024-01-29T14:49:45.211Z,1.35
2024-01-29T14:52:13.367Z,1.28
2024-01-29T14:54:40.803Z,1.23
2024-01-29T14:57:08.060Z,1.18
2024-01-29T14:59:35.179Z,1.17
2024-01-29T15:02:07.619Z,1.14
2024-01-29T15:04:35.023Z,1.05
2024-01-29T15:07:02.912Z,0.98
2024-01-29T15:09:31.450Z,0.90
2024-01-29T15:11:59.218Z,0.83
2024-01-29T15:14:27.617Z,0.81
2024-01-29T15:17:02.940Z,0.78
2024-01-29T15:19:30.803Z,0.77
2024-01-29T15:21:58.543Z,0.61
2024-01-29T15:24:25.863Z,0.70
2024-01-29T15:26:53.777Z,0.62
2024-01-29T15:29:20.999Z,0.52
2024-01-29T15:31:48.585Z,0.40
2024-01-29T15:34:18.594Z,0.30
2024-01-29T15:36:46.584Z,0.27
2024-01-29T15:39:14.514Z,0.19
2024-01-29T15:41:41.862Z,0.04
2024-01-29T15:44:08.947Z,0.03
2024-01-29T15:46:42.312Z,0.01
2024-01-29T15:49:09.472Z,-0.56
2024-01-29T15:51:37.075Z,-0.10
2024-01-29T15:54:04.251Z,-0.14
2024-01-29T15:56:31.949Z,-0.18
2024-01-29T15:58:59.299Z,-0.26
2024-01-29T16:01:26.500Z,-0.42
2024-01-29T16:03:53.659Z,-0.99
2024-01-29T16:06:20.746Z,-0.66
2024-01-29T16:08:48.093Z,-0.76
2024-01-29T16:11:15.117Z,-0.82
2024-01-29T16:13:42.210Z,-0.80
2024-01-29T16:16:14.665Z,-0.84
2024-01-29T16:18:43.445Z,-0.85
2024-01-29T16:21:17.952Z,-1.04
2024-01-29T16:23:45.018Z,-1.10
2024-01-29T16:26:17.157Z,-1.09
2024-01-29T16:28:44.328Z,-1.36
2024-01-29T16:31:12.149Z,-1.28
2024-01-29T16:33:39.508Z,-1.37
2024-01-29T16:36:07.617Z,-1.40
2024-01-29T16:38:34.782Z,-1.36
2024-01-29T16:41:02.186Z,-1.40
2024-01-29T16:43:29.262Z,-1.51
2024-01-29T16:45:56.612Z,-1.43
2024-01-29T16:48:23.836Z,-1.58
2024-01-29T16:50:51.041Z,-1.77
2024-01-29T16:53:18.135Z,-1.56
2024-01-29T16:55:45.363Z,-1.73
2024-01-29T16:58:12.468Z,-1.74
2024-01-29T17:00:39.622Z,-1.72
2024-01-29T17:03:07.486Z,-1.86
2024-01-29T17:05:34.747Z,-1.91
2024-01-29T17:08:04.254Z,-1.99
2024-01-29T17:10:32.089Z,-2.08
2024-01-29T17:12:59.345Z,-2.03
2024-01-29T17:15:26.452Z,-2.10
2024-01-29T17:17:53.596Z,-2.17
2024-01-29T17:20:20.829Z,-2.34
2024-01-29T17:22:47.996Z,-2.29
2024-01-29T17:25:15.230Z,-2.36
2024-01-29T17:27:42.675Z,-2.25
2024-01-29T17:30:11.498Z,-2.23
2024-01-29T17:32:38.648Z,-2.21
2024-01-29T17:35:06.233Z,-2.32
2024-01-29T17:37:33.499Z,-2.33
2024-01-29T17:40:00.818Z,-2.28
2024-01-29T17:42:28.001Z,-2.40
2024-01-29T17:44:55.773Z,-2.53
2024-01-29T17:47:22.846Z,-2.54
2024-01-29T17:49:50.933Z,-2.52
2024-01-29T17:52:18.168Z,-2.50
2024-01-29T17:54:45.321Z,-2.45
2024-01-29T17:57:12.506Z,-3.03
2024-01-29T17:59:39.554Z,-2.62
2024-01-29T18:02:06.875Z,-2.80
2024-01-29T18:04:34.108Z,-2.48
2024-01-29T18:07:01.400Z,-2.65
2024-01-29T18:09:28.657Z,-2.54
2024-01-29T18:11:56.653Z,-2.62
2024-01-29T18:14:24.345Z,-2.85
2024-01-29T18:16:54.499Z,-2.54
2024-01-29T18:19:21.784Z,-2.47
2024-01-29T18:21:48.961Z,-2.66
2024-01-29T18:24:16.160Z,-2.65
2024-01-29T18:26:44.616Z,-2.67
2024-01-29T18:29:12.032Z,-2.62
2024-01-29T18:31:39.367Z,-2.82
2024-01-29T18:34:07.047Z,-2.66
2024-01-29T18:36:34.879Z,-2.89
2024-01-29T18:39:02.183Z,-3.03
2024-01-29T18:41:29.281Z,-2.61
2024-01-29T18:43:56.564Z,-2.73
2024-01-29T18:46:23.839Z,-2.78
2024-01-29T18:48:51.321Z,-3.24
2024-01-29T18:51:32.159Z,-2.94
2024-01-29T18:54:02.248Z,-2.92
2024-01-29T18:56:30.634Z,-2.95
2024-01-29T18:58:57.818Z,-2.97
2024-01-29T19:01:25.718Z,-3.09
2024-01-29T19:03:53.588Z,-3.02
2024-01-29T19:06:21.658Z,-3.24
2024-01-29T19:08:48.841Z,-3.16
2024-01-29T19:11:16.056Z,-3.36
2024-01-29T19:13:43.130Z,-3.14
2024-01-29T19:16:10.328Z,-3.84
2024-01-29T19:18:37.432Z,-3.85
2024-01-29T19:21:04.920Z,-3.45
2024-01-29T19:23:32.004Z,-3.55
2024-01-29T19:25:59.130Z,-3.71
2024-01-29T19:28:27.986Z,-3.43
2024-01-29T19:30:55.326Z,-3.52
2024-01-29T19:33:22.473Z,-3.42
2024-01-29T19:35:52.065Z,-3.54
2024-01-29T19:38:23.154Z,-3.44
2024-01-29T19:40:50.402Z,-3.44
2024-01-29T19:43:17.752Z,-3.50
2024-01-29T19:45:44.921Z,-3.57
2024-01-29T19:48:12.736Z,-3.62
2024-01-29T19:50:39.976Z,-3.67
2024-01-29T19:53:07.252Z,-3.66
2024-01-29T19:55:34.375Z,-3.66
2024-01-29T19:58:01.462Z,-3.63
2024-01-29T20:00:28.532Z,-3.72
2024-01-29T20:02:55.724Z,-3.56
2024-01-29T20:05:23.071Z,-4.33
2024-01-29T20:07:50.171Z,-3.80
2024-01-29T20:10:17.503Z,-3.90
2024-01-29T20:12:44.701Z,-4.36
2024-01-29T20:15:12.299Z,-4.25
2024-01-29T20:17:39.493Z,-4.48
2024-01-29T20:20:07.352Z,-4.23
2024-01-29T20:22:34.859Z,-4.20
2024-01-29T20:25:03.153Z,-4.17
2024-01-29T20:27:30.202Z,-4.54
2024-01-29T20:29:57.262Z,-4.35
2024-01-29T20:32:25.977Z,-4.26
2024-01-29T20:34:53.505Z,-4.23
2024-01-29T20:37:20.674Z,-4.23
2024-01-29T20:39:48.330Z,-4.21
2024-01-29T20:42:15.477Z,-4.16
2024-01-29T20:44:42.624Z,-4.41
2024-01-29T20:47:09.673Z,-4.81
2024-01-29T20:49:36.896Z,-5.36
2024-01-29T20:52:07.145Z,-4.85
2024-01-29T20:54:34.423Z,-4.95
2024-01-29T20:57:02.352Z,-4.92
2024-01-29T20:59:29.552Z,-4.94
2024-01-29T21:01:56.834Z,-4.99
2024-01-29T21:04:24.195Z,-5.05
2024-01-29T21:06:52.950Z,-5.08
2024-01-29T21:09:20.201Z,-5.13
2024-01-29T21:11:47.237Z,-5.16
2024-01-29T21:14:14.326Z,-5.22
2024-01-29T21:16:41.530Z,-5.29
2024-01-29T21:19:08.873Z,-5.35
2024-01-29T21:21:41.779Z,-5.50
2024-01-29T21:24:08.845Z,-5.37
2024-01-29T21:26:36.121Z,-5.56
2024-01-29T21:29:03.828Z,-5.60
2024-01-29T21:31:31.007Z,-5.28
2024-01-29T21:33:58.188Z,-5.32
2024-01-29T21:36:25.353Z,-5.59
2024-01-29T21:38:52.432Z,-5.44
2024-01-29T21:41:19.615Z,-5.48
2024-01-29T21:43:46.684Z,-5.56
2024-01-29T21:46:13.960Z,-5.59
2024-01-29T21:48:42.246Z,-5.69
2024-01-29T21:51:09.410Z,-5.72
2024-01-29T21:53:36.459Z,-5.86
2024-01-29T21:56:04.008Z,-5.88
2024-01-29T21:58:31.176Z,-5.80
2024-01-29T22:00:58.336Z,-5.92
2024-01-29T22:03:26.033Z,-5.82
2024-01-29T22:05:53.137Z,-6.04
2024-01-29T22:08:20.213Z,-5.81
2024-01-29T22:10:47.254Z,-5.77
2024-01-29T22:13:14.377Z,-5.66
2024-01-29T22:15:41.500Z,-5.72
2024-01-29T22:18:10.311Z,-5.68
2024-01-29T22:20:37.462Z,-5.79
2024-01-29T22:23:04.683Z,-5.78
2024-01-29T22:25:31.789Z,-5.84
2024-01-29T22:27:58.962Z,-5.83
2024-01-29T22:30:26.051Z,-5.96
2024-01-29T22:32:53.211Z,-6.18
2024-01-29T22:35:20.642Z,-5.98
2024-01-29T22:37:48.408Z,-6.06
2024-01-29T22:40:15.758Z,-6.07
2024-01-29T22:42:42.930Z,-6.12
2024-01-29T22:45:11.417Z,-6.13
2024-01-29T22:47:38.488Z,-6.16
2024-01-29T22:50:07.170Z,-6.07
2024-01-29T22:52:34.244Z,-5.96
2024-01-29T22:55:01.527Z,-6.02
2024-01-29T22:57:28.623Z,-6.00
2024-01-29T22:59:55.735Z,-6.07
2024-01-29T23:02:23.579Z,-6.15
2024-01-29T23:04:51.330Z,-5.90
2024-01-29T23:07:19.190Z,-6.00
2024-01-29T23:09:46.376Z,-6.27
2024-01-29T23:12:14.270Z,-6.15
2024-01-29T23:14:41.546Z,-6.19
2024-01-29T23:17:09.933Z,-6.16
2024-01-29T23:19:37.084Z,-6.30
2024-01-29T23:22:04.438Z,-6.15
2024-01-29T23:24:33.462Z,-6.16
2024-01-29T23:27:00.525Z,-6.15
2024-01-29T23:29:27.670Z,-6.23
2024-01-29T23:31:57.252Z,-6.30
2024-01-29T23:34:24.399Z,-6.51
2024-01-29T23:36:51.550Z,-6.37
2024-01-29T23:39:18.693Z,-6.37
2024-01-29T23:41:45.752Z,-6.45
2024-01-29T23:44:13.390Z,-6.52
2024-01-29T23:46:41.155Z,-6.56
2024-01-29T23:49:08.742Z,-6.63
2024-01-29T23:51:35.998Z,-6.72
2024-01-29T23:54:03.885Z,-6.86
2024-01-29T23:56:32.799Z,-6.87
2024-01-29T23:58:59.861Z,-6.86
